Time;durP1;ratioP1;P1;durP2;ratioP2;P2;SDS_P1;SDS_P2;PMS_P1;PMS_P2;Temp;Humidity;BMP_temperature;BMP_pressure;BME280_temperature;BME280_humidity;BME280_pressure;Samples;Min_cycle;Max_cycle;Signal;HPM_P1;HPM_P2
2023/06/14 00:01:21;;;;;;;6.10;4.80;;;24.90;33.10;;;;;;4968434;28;20342;-50
2023/06/14 00:03:48;;;;;;;4.70;4.30;;;25.30;32.80;;;;;;4972225;28;20457;-49
2023/06/14 00:06:14;;;;;;;7.30;5.57;;;25.50;32.20;;;;;;4970839;28;20792;-48
2023/06/14 00:08:40;;;;;;;4.53;3.87;;;25.70;31.60;;;;;;4963892;28;20436;-47
2023/06/14 00:11:06;;;;;;;4.50;4.20;;;25.70;31.40;;;;;;4970239;28;20439;-47
2023/06/14 00:13:33;;;;;;;5.87;4.90;;;25.80;31.40;;;;;;4971658;28;20437;-47
2023/06/14 00:15:58;;;;;;;5.17;4.10;;;25.90;31.30;;;;;;4963043;28;20450;-47
2023/06/14 00:18:24;;;;;;;7.40;4.43;;;25.80;31.20;;;;;;4967061;28;20983;-49
2023/06/14 00:20:51;;;;;;;6.20;5.60;;;25.80;31.70;;;;;;4966681;28;20191;-50
2023/06/14 00:23:17;;;;;;;5.47;4.97;;;25.70;31.20;;;;;;4961935;28;21211;-51
2023/06/14 00:25:42;;;;;;;4.90;4.43;;;25.50;31.40;;;;;;4962679;28;20493;-49
2023/06/14 00:28:08;;;;;;;7.40;5.40;;;25.40;31.80;;;;;;4965501;28;20196;-52
2023/06/14 00:30:34;;;;;;;8.23;5.43;;;25.10;32.30;;;;;;4973657;28;20252;-48
2023/06/14 00:32:59;;;;;;;7.87;5.40;;;24.90;32.80;;;;;;4974529;28;20198;-50
2023/06/14 00:35:25;;;;;;;17.83;5.13;;;24.90;32.80;;;;;;4970048;28;20556;-51
2023/06/14 00:37:51;;;;;;;6.33;5.50;;;24.80;33.10;;;;;;4958207;28;20741;-48
2023/06/14 00:40:16;;;;;;;8.93;8.03;;;24.80;33.20;;;;;;4971399;28;20211;-48
2023/06/14 00:42:42;;;;;;;8.37;7.47;;;24.70;33.10;;;;;;4968372;28;20365;-48
2023/06/14 00:45:08;;;;;;;6.90;6.20;;;24.70;33.30;;;;;;4965809;28;20254;-49
2023/06/14 00:47:37;;;;;;;6.10;5.60;;;24.60;33.20;;;;;;4971682;28;20207;-48
2023/06/14 00:50:06;;;;;;;5.87;5.37;;;24.50;33.50;;;;;;4972606;28;20454;-49
2023/06/14 00:52:32;;;;;;;5.93;5.30;;;24.40;34.00;;;;;;4969400;28;20818;-48
2023/06/14 00:54:58;;;;;;;5.20;4.70;;;24.30;33.80;;;;;;4967102;28;20463;-51
2023/06/14 00:57:23;;;;;;;5.53;5.03;;;24.40;33.70;;;;;;4972878;28;20554;-49
2023/06/14 00:59:50;;;;;;;6.27;4.93;;;24.30;33.60;;;;;;4970998;28;20191;-52
2023/06/14 01:02:16;;;;;;;5.77;4.60;;;24.20;33.90;;;;;;4974916;28;20201;-48
2023/06/14 01:04:45;;;;;;;5.57;5.13;;;24.00;34.00;;;;;;4970087;28;20490;-52
2023/06/14 01:07:31;;;;;;;6.23;4.60;;;23.90;34.30;;;;;;4969557;28;20500;-49
2023/06/14 01:10:35;;;;;;;5.67;5.10;;;23.70;34.60;;;;;;4970904;28;20446;-53
2023/06/14 01:13:04;;;;;;;5.03;4.53;;;23.60;34.90;;;;;;4968813;28;20513;-48
2023/06/14 01:15:31;;;;;;;7.17;5.30;;;23.60;35.00;;;;;;4957760;28;20427;-48
2023/06/14 01:18:02;;;;;;;5.17;4.77;;;23.50;35.40;;;;;;4968035;28;20871;-48
2023/06/14 01:20:30;;;;;;;5.33;4.83;;;23.60;35.80;;;;;;4969893;28;20907;-48
2023/06/14 01:22:56;;;;;;;6.93;4.70;;;23.70;35.80;;;;;;4964246;28;20533;-48
2023/06/14 01:25:22;;;;;;;5.40;4.90;;;23.90;35.30;;;;;;4971367;28;20923;-53
2023/06/14 01:28:10;;;;;;;6.93;5.00;;;24.00;34.90;;;;;;4968412;28;20230;-51
2023/06/14 01:30:37;;;;;;;5.80;5.30;;;24.00;34.30;;;;;;4973082;28;20489;-50
2023/06/14 01:33:04;;;;;;;5.87;5.37;;;24.00;35.00;;;;;;4971324;28;20454;-48
2023/06/14 01:35:30;;;;;;;5.83;5.30;;;24.10;35.00;;;;;;4969141;28;20454;-48
2023/06/14 01:37:56;;;;;;;5.53;4.97;;;24.00;34.20;;;;;;4973894;28;20926;-48
2023/06/14 01:40:22;;;;;;;5.23;4.73;;;24.10;34.40;;;;;;4971495;28;20195;-48
2023/06/14 01:42:49;;;;;;;5.33;4.83;;;24.10;34.90;;;;;;4968102;28;20459;-47
2023/06/14 01:45:16;;;;;;;5.73;5.00;;;24.10;34.70;;;;;;4971442;28;20553;-50
2023/06/14 01:47:43;;;;;;;5.30;4.90;;;24.20;34.00;;;;;;4958837;28;20474;-52
2023/06/14 01:50:09;;;;;;;7.47;4.90;;;24.20;34.50;;;;;;4969775;28;20529;-47
2023/06/14 01:52:35;;;;;;;8.33;4.30;;;24.30;34.30;;;;;;4983937;28;20530;-48
2023/06/14 01:55:02;;;;;;;4.20;3.83;;;24.30;34.40;;;;;;4963759;28;20554;-48
2023/06/14 01:57:29;;;;;;;5.40;5.00;;;24.40;34.30;;;;;;4967373;28;20565;-52
2023/06/14 01:59:54;;;;;;;4.73;4.33;;;24.50;34.60;;;;;;4973003;28;20532;-47
2023/06/14 02:02:20;;;;;;;4.87;4.47;;;24.50;33.70;;;;;;4969574;28;20549;-47
2023/06/14 02:04:47;;;;;;;4.97;4.30;;;24.50;33.50;;;;;;4969415;28;20278;-49
2023/06/14 02:07:13;;;;;;;5.57;5.00;;;24.50;34.00;;;;;;4968417;28;20227;-51
2023/06/14 02:09:39;;;;;;;5.13;4.67;;;24.50;34.10;;;;;;4967388;28;20552;-47
2023/06/14 02:12:05;;;;;;;7.17;6.27;;;24.50;33.70;;;;;;4969500;28;21139;-47
2023/06/14 02:14:31;;;;;;;6.20;5.63;;;24.50;34.00;;;;;;4971286;28;20204;-48
2023/06/14 02:16:56;;;;;;;7.87;5.20;;;24.50;33.60;;;;;;4973061;28;20453;-51
2023/06/14 02:19:22;;;;;;;5.87;5.27;;;24.50;34.10;;;;;;4972943;28;20194;-51
2023/06/14 02:21:47;;;;;;;9.27;5.00;;;24.40;33.70;;;;;;4971305;28;20227;-50
2023/06/14 02:24:13;;;;;;;5.70;5.20;;;24.30;33.70;;;;;;4964050;28;20195;-48
2023/06/14 02:26:41;;;;;;;6.03;5.43;;;24.10;34.50;;;;;;4967872;28;20211;-49
2023/06/14 02:29:09;;;;;;;5.83;5.20;;;23.90;35.20;;;;;;4963863;28;20291;-48
2023/06/14 02:31:35;;;;;;;7.00;5.57;;;23.70;36.00;;;;;;4974288;28;20542;-47
2023/06/14 02:34:01;;;;;;;6.00;5.27;;;23.50;36.50;;;;;;4971426;28;20457;-48
2023/06/14 02:36:29;;;;;;;5.53;5.03;;;23.40;36.80;;;;;;4971897;28;20443;-50
2023/06/14 02:38:57;;;;;;;5.60;5.10;;;23.20;36.90;;;;;;4968588;28;20251;-48
2023/06/14 02:41:23;;;;;;;5.80;4.77;;;23.10;37.10;;;;;;4965257;28;20475;-52
2023/06/14 02:43:48;;;;;;;5.40;5.00;;;23.00;37.20;;;;;;4970655;28;20501;-48
2023/06/14 02:46:14;;;;;;;6.20;4.90;;;23.00;37.20;;;;;;4968636;28;20494;-49
2023/06/14 02:48:40;;;;;;;5.00;4.60;;;22.90;36.90;;;;;;4964347;28;20188;-48
2023/06/14 02:51:06;;;;;;;5.80;5.30;;;22.90;37.10;;;;;;4966780;28;20446;-52
2023/06/14 02:53:31;;;;;;;5.57;5.07;;;22.90;37.30;;;;;;4970393;28;20230;-49
2023/06/14 02:55:57;;;;;;;6.40;5.40;;;22.90;37.10;;;;;;4967224;28;20199;-48
2023/06/14 02:58:24;;;;;;;5.40;4.90;;;22.90;37.00;;;;;;4970111;28;20246;-52
2023/06/14 03:00:52;;;;;;;5.47;4.97;;;22.90;36.90;;;;;;4964223;28;20191;-54
2023/06/14 03:03:18;;;;;;;6.00;5.50;;;22.90;36.80;;;;;;4973853;28;20922;-50
2023/06/14 03:05:47;;;;;;;5.73;5.23;;;22.70;36.70;;;;;;4968938;28;20544;-51
2023/06/14 03:08:19;;;;;;;5.50;5.03;;;22.50;36.90;;;;;;4967588;28;20191;-52
2023/06/14 03:10:49;;;;;;;5.27;4.70;;;22.30;37.50;;;;;;4969686;28;20447;-47
2023/06/14 03:13:22;;;;;;;5.90;5.40;;;22.30;37.60;;;;;;4966259;28;22629;-49
2023/06/14 03:15:50;;;;;;;5.03;4.63;;;22.30;37.70;;;;;;4971588;28;20451;-52
2023/06/14 03:18:16;;;;;;;5.97;5.43;;;22.30;38.10;;;;;;4969821;28;20521;-49
2023/06/14 03:20:42;;;;;;;6.07;5.50;;;22.40;37.70;;;;;;4971657;28;20430;-50
2023/06/14 03:23:08;;;;;;;5.73;4.80;;;22.40;37.60;;;;;;4966413;28;20489;-50
2023/06/14 03:25:38;;;;;;;5.70;4.70;;;22.40;37.30;;;;;;4964560;28;20482;-53
2023/06/14 03:28:04;;;;;;;5.60;4.33;;;22.50;37.40;;;;;;4972406;28;20849;-53
2023/06/14 03:30:30;;;;;;;5.27;4.83;;;22.50;37.50;;;;;;4963799;28;20450;-53
2023/06/14 03:32:56;;;;;;;4.93;4.60;;;22.40;37.40;;;;;;4969829;28;20505;-53
2023/06/14 03:35:23;;;;;;;5.97;5.43;;;22.40;37.40;;;;;;4967790;28;20842;-51
2023/06/14 03:37:49;;;;;;;6.17;5.57;;;22.30;37.50;;;;;;4972995;28;20195;-53
2023/06/14 03:40:17;;;;;;;6.87;5.87;;;22.30;37.60;;;;;;4968171;28;20451;-52
2023/06/14 03:42:43;;;;;;;5.50;5.00;;;22.30;37.80;;;;;;4967686;28;20482;-54
2023/06/14 03:45:09;;;;;;;6.50;4.80;;;22.20;37.80;;;;;;4967253;28;20490;-53
2023/06/14 03:47:35;;;;;;;5.97;5.37;;;22.10;38.20;;;;;;4965806;28;20202;-54
2023/06/14 03:50:02;;;;;;;5.63;5.07;;;22.00;38.60;;;;;;4969380;28;20342;-53
2023/06/14 03:52:27;;;;;;;6.03;5.20;;;21.90;38.60;;;;;;4956416;28;20203;-53
2023/06/14 03:54:53;;;;;;;6.40;5.37;;;21.90;38.70;;;;;;4970885;28;20444;-53
2023/06/14 03:57:20;;;;;;;5.80;5.30;;;21.80;38.90;;;;;;4967933;28;20291;-53
2023/06/14 03:59:45;;;;;;;5.30;4.80;;;21.70;38.90;;;;;;4970308;28;20192;-53
2023/06/14 04:02:11;;;;;;;5.73;5.20;;;21.60;39.10;;;;;;4964847;28;22179;-53
2023/06/14 04:04:37;;;;;;;5.07;4.67;;;21.60;39.20;;;;;;4974176;28;20220;-53
2023/06/14 04:07:03;;;;;;;5.60;5.10;;;21.70;39.30;;;;;;4971403;28;20443;-52
2023/06/14 04:09:32;;;;;;;5.50;4.60;;;21.60;39.20;;;;;;4967624;28;20195;-52
2023/06/14 04:11:58;;;;;;;6.60;5.43;;;21.70;39.10;;;;;;4963530;28;20510;-52
2023/06/14 04:14:23;;;;;;;5.83;5.33;;;21.80;39.00;;;;;;4970182;28;20445;-53
2023/06/14 04:16:49;;;;;;;5.67;5.03;;;21.80;39.00;;;;;;4966896;28;20604;-51
2023/06/14 04:19:15;;;;;;;5.90;5.40;;;21.90;39.00;;;;;;4970140;28;20203;-52
2023/06/14 04:21:41;;;;;;;5.93;5.30;;;22.00;38.90;;;;;;4965885;28;20454;-50
2023/06/14 04:24:12;;;;;;;6.00;5.50;;;22.00;38.90;;;;;;4967294;28;20510;-53
2023/06/14 04:26:39;;;;;;;6.17;5.60;;;22.00;38.80;;;;;;4972095;28;20217;-52
2023/06/14 04:29:05;;;;;;;5.80;5.30;;;22.00;38.90;;;;;;4961110;28;20514;-53
2023/06/14 04:31:33;;;;;;;5.67;5.17;;;22.00;39.10;;;;;;4965080;28;20774;-52
2023/06/14 04:33:59;;;;;;;5.87;5.37;;;21.90;39.50;;;;;;4972085;28;20443;-53
2023/06/14 04:36:26;;;;;;;5.53;5.03;;;21.70;39.40;;;;;;4972899;28;20446;-52
2023/06/14 04:38:54;;;;;;;8.30;5.80;;;21.60;39.40;;;;;;4973434;28;20478;-52
2023/06/14 04:41:22;;;;;;;8.40;5.60;;;21.50;39.80;;;;;;4932339;28;1102895;-53
2023/06/14 04:43:49;;;;;;;8.70;5.43;;;21.50;39.90;;;;;;4969921;28;20227;-51
2023/06/14 04:46:15;;;;;;;5.67;5.17;;;21.60;40.30;;;;;;4967551;28;20498;-53
2023/06/14 04:48:42;;;;;;;5.60;5.10;;;21.70;40.00;;;;;;4973327;28;20484;-52
2023/06/14 04:51:11;;;;;;;6.30;5.70;;;21.60;40.00;;;;;;4970350;28;20789;-54
2023/06/14 04:53:37;;;;;;;5.90;5.40;;;21.60;39.90;;;;;;4971679;28;20445;-53
2023/06/14 04:56:03;;;;;;;9.33;7.03;;;21.60;40.00;;;;;;4964698;28;21014;-52
2023/06/14 04:58:29;;;;;;;6.90;6.20;;;21.70;39.90;;;;;;4973028;28;20203;-53
2023/06/14 05:00:56;;;;;;;5.60;5.10;;;21.80;39.70;;;;;;4970096;28;20550;-53
2023/06/14 05:03:23;;;;;;;7.10;5.80;;;21.80;39.80;;;;;;4963334;28;20330;-50
2023/06/14 05:05:50;;;;;;;7.33;6.60;;;21.90;39.80;;;;;;4970853;28;20513;-50
2023/06/14 05:08:16;;;;;;;6.53;5.17;;;21.90;39.90;;;;;;4969451;28;20461;-53
2023/06/14 05:10:41;;;;;;;9.43;6.90;;;22.10;39.60;;;;;;4974777;28;20431;-52
2023/06/14 05:13:07;;;;;;;11.60;7.47;;;22.20;39.50;;;;;;4970437;28;20233;-52
2023/06/14 05:15:33;;;;;;;7.43;6.03;;;22.30;38.90;;;;;;4968485;28;20323;-54
2023/06/14 05:17:59;;;;;;;8.83;5.50;;;22.40;38.60;;;;;;4969019;28;20217;-50
2023/06/14 05:20:26;;;;;;;7.87;6.47;;;22.40;38.70;;;;;;4970698;28;20474;-54
2023/06/14 05:22:53;;;;;;;8.63;5.97;;;22.20;38.10;;;;;;4967636;28;20451;-53
2023/06/14 05:25:22;;;;;;;10.63;6.30;;;22.10;38.60;;;;;;4967868;28;20581;-48
2023/06/14 05:27:48;;;;;;;6.90;6.30;;;22.10;38.60;;;;;;4974943;28;20439;-50
2023/06/14 05:30:15;;;;;;;8.17;5.60;;;22.20;38.40;;;;;;4968961;28;20445;-52
2023/06/14 05:32:41;;;;;;;8.90;6.57;;;22.30;38.80;;;;;;4972121;28;20226;-51
2023/06/14 05:35:07;;;;;;;7.50;5.90;;;22.40;39.20;;;;;;4966650;28;20452;-49
2023/06/14 05:37:33;;;;;;;8.10;5.63;;;22.60;38.50;;;;;;4974348;28;20912;-52
2023/06/14 05:39:59;;;;;;;9.53;5.60;;;22.70;38.30;;;;;;4960932;28;20475;-49
2023/06/14 05:42:24;;;;;;;12.10;7.83;;;22.80;38.40;;;;;;4966488;28;20238;-51
2023/06/14 05:44:50;;;;;;;6.37;5.77;;;23.00;38.40;;;;;;4971365;28;20302;-48
2023/06/14 05:47:16;;;;;;;8.70;4.97;;;23.10;38.30;;;;;;4966790;28;20202;-48
2023/06/14 05:49:41;;;;;;;6.37;5.53;;;23.20;38.00;;;;;;4968278;28;20699;-52
2023/06/14 05:52:08;;;;;;;6.80;6.10;;;23.30;38.00;;;;;;4968574;28;20203;-49
2023/06/14 05:54:33;;;;;;;8.03;5.53;;;23.50;37.90;;;;;;4967588;28;20227;-53
2023/06/14 05:57:01;;;;;;;5.70;5.20;;;23.60;37.40;;;;;;4967804;28;20478;-52
2023/06/14 05:59:27;;;;;;;6.73;6.13;;;23.70;37.10;;;;;;4969922;28;20230;-50
2023/06/14 06:01:53;;;;;;;8.93;5.77;;;23.60;37.20;;;;;;4968724;28;20445;-52
2023/06/14 06:04:19;;;;;;;6.67;6.10;;;23.60;37.30;;;;;;4967742;28;20438;-48
2023/06/14 06:06:46;;;;;;;7.03;5.90;;;23.70;37.30;;;;;;4970106;28;20543;-48
2023/06/14 06:09:14;;;;;;;7.80;6.50;;;23.80;37.20;;;;;;4970918;28;20434;-52
2023/06/14 06:11:40;;;;;;;6.73;6.10;;;23.90;36.80;;;;;;4972300;28;20498;-52
2023/06/14 06:14:05;;;;;;;7.00;6.40;;;23.90;36.70;;;;;;4973647;28;20789;-49
2023/06/14 06:16:31;;;;;;;6.60;6.00;;;23.90;36.90;;;;;;4972334;28;20195;-51
2023/06/14 06:18:56;;;;;;;6.50;5.77;;;23.90;37.10;;;;;;4973114;28;20278;-53
2023/06/14 06:21:22;;;;;;;6.07;5.57;;;24.00;37.40;;;;;;4971948;28;20202;-52
2023/06/14 06:23:47;;;;;;;6.40;5.80;;;24.00;37.00;;;;;;4972397;28;20199;-49
2023/06/14 06:26:13;;;;;;;7.23;6.53;;;24.10;37.30;;;;;;4973354;28;20219;-50
2023/06/14 06:28:39;;;;;;;8.17;6.53;;;24.20;37.60;;;;;;4974167;28;20187;-52
2023/06/14 06:31:05;;;;;;;6.37;5.77;;;24.20;37.20;;;;;;4974673;28;20192;-50
2023/06/14 06:33:30;;;;;;;6.53;5.93;;;24.30;37.30;;;;;;4971705;28;20199;-49
2023/06/14 06:35:56;;;;;;;7.00;6.30;;;24.30;37.10;;;;;;4973191;28;20844;-48
2023/06/14 06:38:21;;;;;;;8.13;7.10;;;24.40;37.40;;;;;;4974961;28;20199;-52
2023/06/14 06:40:47;;;;;;;6.67;5.90;;;24.40;37.30;;;;;;4972732;28;20262;-52
2023/06/14 06:43:13;;;;;;;7.07;5.53;;;24.50;37.40;;;;;;4962768;28;20199;-50
2023/06/14 06:45:42;;;;;;;7.87;7.17;;;24.50;36.80;;;;;;4964723;28;20246;-50
2023/06/14 06:48:10;;;;;;;6.77;5.90;;;24.50;37.10;;;;;;4965440;28;20534;-49
2023/06/14 06:50:35;;;;;;;6.30;5.70;;;24.60;36.70;;;;;;4963712;28;20474;-51
2023/06/14 06:53:01;;;;;;;7.43;6.40;;;24.80;36.90;;;;;;4971702;28;20493;-48
2023/06/14 06:55:27;;;;;;;7.18;5.50;;;25.00;36.90;;;;;;4966350;28;20505;-47
2023/06/14 06:57:53;;;;;;;7.40;6.80;;;25.20;36.40;;;;;;4966073;28;20647;-49
2023/06/14 07:00:20;;;;;;;6.60;5.77;;;25.20;36.20;;;;;;4969878;28;20195;-49
2023/06/14 07:02:46;;;;;;;6.30;5.67;;;25.30;36.10;;;;;;4970776;28;20450;-50
2023/06/14 07:05:11;;;;;;;7.10;6.33;;;25.40;35.60;;;;;;4966550;28;20494;-47
2023/06/14 07:07:37;;;;;;;13.33;6.73;;;25.40;35.70;;;;;;4968169;28;20218;-48
2023/06/14 07:10:04;;;;;;;6.27;5.40;;;25.40;35.80;;;;;;4971494;28;20195;-49
2023/06/14 07:12:33;;;;;;;7.43;5.40;;;25.40;36.00;;;;;;4964835;28;20539;-48
2023/06/14 07:14:59;;;;;;;7.60;5.57;;;25.50;35.90;;;;;;4971005;28;20447;-47
2023/06/14 07:17:25;;;;;;;8.83;5.27;;;25.50;34.80;;;;;;4972318;28;20805;-48
2023/06/14 07:19:51;;;;;;;6.40;5.70;;;25.50;35.30;;;;;;4974129;28;20195;-47
2023/06/14 07:22:17;;;;;;;6.83;6.20;;;25.50;35.20;;;;;;4966607;28;20655;-47
2023/06/14 07:24:43;;;;;;;7.13;5.40;;;25.60;35.20;;;;;;4972802;28;20226;-48
2023/06/14 07:27:09;;;;;;;6.33;5.70;;;25.60;35.30;;;;;;4973331;28;20450;-48
2023/06/14 07:29:34;;;;;;;5.22;4.70;;;25.70;35.10;;;;;;4973761;28;20409;-46
2023/06/14 07:32:00;;;;;;;5.73;5.23;;;25.80;34.70;;;;;;4970347;28;20565;-47
2023/06/14 07:34:26;;;;;;;7.03;5.63;;;25.80;34.80;;;;;;4973891;28;20195;-51
2023/06/14 07:36:51;;;;;;;5.23;4.73;;;25.90;35.30;;;;;;4981069;28;20197;-49
2023/06/14 07:39:17;;;;;;;5.00;4.53;;;26.00;35.30;;;;;;4975337;28;20184;-50
2023/06/14 07:41:42;;;;;;;5.70;5.17;;;26.10;35.10;;;;;;4973308;28;20486;-49
2023/06/14 07:44:08;;;;;;;7.20;4.43;;;26.30;35.20;;;;;;4971405;28;20199;-47
2023/06/14 07:46:34;;;;;;;5.10;4.70;;;26.50;34.30;;;;;;4963828;28;20238;-47
2023/06/14 07:49:00;;;;;;;8.73;5.20;;;26.60;34.00;;;;;;4963596;28;20298;-46
2023/06/14 07:51:26;;;;;;;5.57;5.00;;;26.80;33.80;;;;;;4970779;28;20454;-46
2023/06/14 07:53:51;;;;;;;6.73;5.60;;;27.00;33.30;;;;;;4969758;28;20443;-48
2023/06/14 07:56:17;;;;;;;6.03;4.70;;;27.10;33.40;;;;;;4968041;28;20191;-47
2023/06/14 07:58:42;;;;;;;6.97;5.30;;;27.10;33.00;;;;;;4968559;28;20333;-47
2023/06/14 08:01:09;;;;;;;6.57;5.03;;;27.10;34.20;;;;;;4971117;28;20199;-49
2023/06/14 08:03:34;;;;;;;6.77;4.90;;;27.20;33.30;;;;;;4969886;28;20241;-50
2023/06/14 08:06:00;;;;;;;7.70;5.60;;;27.30;33.60;;;;;;4971217;28;20500;-50
2023/06/14 08:08:26;;;;;;;7.33;5.57;;;27.50;32.80;;;;;;4970321;28;20204;-49
2023/06/14 08:10:52;;;;;;;9.23;5.10;;;27.50;32.10;;;;;;4963807;28;20471;-49
2023/06/14 08:13:18;;;;;;;7.23;5.87;;;27.60;32.30;;;;;;4964361;28;21397;-48
2023/06/14 08:15:43;;;;;;;5.50;5.10;;;27.70;33.10;;;;;;4965060;28;20192;-47
2023/06/14 08:18:09;;;;;;;6.37;5.13;;;27.90;33.00;;;;;;4961109;28;20196;-50
2023/06/14 08:20:35;;;;;;;5.27;4.87;;;28.00;31.90;;;;;;4970262;28;20278;-46
2023/06/14 08:23:03;;;;;;;7.13;4.87;;;28.10;32.40;;;;;;4967509;28;20195;-53
2023/06/14 08:25:30;;;;;;;6.33;5.20;;;28.30;31.90;;;;;;4965887;28;20710;-51
2023/06/14 08:27:55;;;;;;;10.07;4.90;;;28.40;31.30;;;;;;4969874;28;20442;-49
2023/06/14 08:30:22;;;;;;;6.30;5.70;;;28.60;31.60;;;;;;4973418;28;20419;-53
2023/06/14 08:32:47;;;;;;;5.90;5.40;;;28.70;31.20;;;;;;4973513;28;20183;-51
2023/06/14 08:35:13;;;;;;;6.10;5.47;;;28.90;31.70;;;;;;4971024;28;20465;-49
2023/06/14 08:37:42;;;;;;;5.53;5.03;;;28.90;30.80;;;;;;4972847;28;20564;-51
2023/06/14 08:40:19;;;;;;;5.70;5.20;;;29.10;30.00;;;;;;4972700;28;20447;-52
2023/06/14 08:42:46;;;;;;;6.70;6.10;;;29.30;29.50;;;;;;4973305;28;20498;-52
2023/06/14 08:45:11;;;;;;;5.70;5.07;;;29.30;29.30;;;;;;4972422;28;20470;-53
2023/06/14 08:47:37;;;;;;;5.53;5.03;;;29.30;30.00;;;;;;4972195;28;20461;-51
2023/06/14 08:50:04;;;;;;;9.30;5.60;;;29.40;29.30;;;;;;4976762;28;20719;-51
2023/06/14 08:52:33;;;;;;;5.17;4.77;;;29.50;30.10;;;;;;4976854;28;20457;-52
2023/06/14 08:55:00;;;;;;;6.13;5.30;;;29.60;30.40;;;;;;4976768;28;20517;-53
2023/06/14 08:57:30;;;;;;;5.83;5.20;;;29.80;30.00;;;;;;4976003;28;20486;-52
2023/06/14 08:59:56;;;;;;;5.60;5.10;;;29.90;30.10;;;;;;4976702;28;20427;-54
2023/06/14 09:02:22;;;;;;;5.80;5.20;;;30.00;29.70;;;;;;4975301;28;20533;-53
2023/06/14 09:04:49;;;;;;;5.53;5.10;;;30.10;28.90;;;;;;4976602;28;20511;-52
2023/06/14 09:07:15;;;;;;;5.27;4.87;;;30.20;29.40;;;;;;4974664;28;20235;-51
2023/06/14 09:09:43;;;;;;;6.30;5.80;;;30.30;29.60;;;;;;4975325;28;20505;-52
2023/06/14 09:12:12;;;;;;;7.50;5.20;;;30.50;29.70;;;;;;4976532;28;20218;-48
2023/06/14 09:14:39;;;;;;;5.10;4.70;;;30.70;29.30;;;;;;4976397;28;20431;-47
2023/06/14 09:17:05;;;;;;;5.80;5.17;;;30.80;28.90;;;;;;4976443;28;20561;-48
2023/06/14 09:19:31;;;;;;;5.87;5.37;;;31.00;28.10;;;;;;4975351;28;20494;-47
2023/06/14 09:21:57;;;;;;;6.20;5.23;;;31.00;27.10;;;;;;4976265;28;20431;-48
2023/06/14 09:24:25;;;;;;;5.13;4.73;;;31.20;27.50;;;;;;4975265;28;20195;-47
2023/06/14 09:26:51;;;;;;;9.43;5.00;;;31.30;27.60;;;;;;4974558;28;20633;-47
2023/06/14 09:29:18;;;;;;;5.07;4.67;;;31.30;27.70;;;;;;4976228;28;20514;-49
2023/06/14 09:31:46;;;;;;;6.53;4.87;;;31.40;27.30;;;;;;4976053;28;20195;-47
2023/06/14 09:34:12;;;;;;;4.73;4.33;;;31.40;26.90;;;;;;4974990;28;20439;-47
2023/06/14 09:36:39;;;;;;;5.17;4.77;;;31.60;26.10;;;;;;4975872;28;20427;-47
2023/06/14 09:39:06;;;;;;;4.87;4.47;;;31.70;26.50;;;;;;4975829;28;20261;-49
2023/06/14 09:41:36;;;;;;;5.53;4.87;;;31.90;27.00;;;;;;4975841;28;20529;-47
2023/06/14 09:44:04;;;;;;;4.90;4.50;;;31.90;25.60;;;;;;4975920;28;20423;-48
2023/06/14 09:46:30;;;;;;;5.10;4.63;;;31.90;24.80;;;;;;4974839;28;20485;-47
2023/06/14 09:48:57;;;;;;;11.93;5.33;;;32.10;24.40;;;;;;4975973;28;20431;-47
2023/06/14 09:51:23;;;;;;;5.17;4.60;;;32.20;25.20;;;;;;4975961;28;21521;-48
2023/06/14 09:53:50;;;;;;;15.60;4.70;;;32.30;25.50;;;;;;4974041;28;20430;-47
2023/06/14 09:56:29;;;;;;;4.20;3.90;;;32.30;23.70;;;;;;4973798;28;20534;-51
2023/06/14 09:58:57;;;;;;;5.17;4.47;;;32.50;24.40;;;;;;4975472;28;20464;-47
2023/06/14 10:01:25;;;;;;;4.93;4.40;;;32.70;24.60;;;;;;4974614;28;20423;-48
2023/06/14 10:04:03;;;;;;;7.60;4.73;;;32.90;25.50;;;;;;4975615;28;20851;-47
2023/06/14 10:06:29;;;;;;;5.00;4.60;;;32.90;24.40;;;;;;4974320;28;20581;-47
2023/06/14 10:08:59;;;;;;;9.10;4.90;;;33.00;24.60;;;;;;4974816;28;20442;-48
2023/06/14 10:11:29;;;;;;;4.90;4.40;;;32.90;24.70;;;;;;4970611;28;20459;-50
2023/06/14 10:13:56;;;;;;;5.23;4.47;;;32.90;24.50;;;;;;4966241;28;20974;-51
2023/06/14 10:16:29;;;;;;;4.87;4.43;;;33.00;24.00;;;;;;4970120;28;20478;-48
2023/06/14 10:19:15;;;;;;;5.00;4.40;;;33.00;23.20;;;;;;4967976;28;20447;-47
2023/06/14 10:22:02;;;;;;;4.77;4.37;;;33.00;24.00;;;;;;4974439;28;20513;-49
2023/06/14 10:24:40;;;;;;;6.03;4.60;;;33.00;24.70;;;;;;4970727;28;20837;-47
2023/06/14 10:27:10;;;;;;;6.43;4.40;;;33.30;23.80;;;;;;4971421;28;20454;-48
2023/06/14 10:29:54;;;;;;;5.87;5.20;;;33.40;22.80;;;;;;4973123;28;20446;-48
2023/06/14 10:32:21;;;;;;;6.10;4.63;;;33.20;22.70;;;;;;4969804;28;20458;-52
2023/06/14 10:35:01;;;;;;;4.70;4.30;;;33.20;23.30;;;;;;4971943;28;20439;-48
2023/06/14 10:37:27;;;;;;;9.70;4.50;;;33.30;23.10;;;;;;4974791;28;21002;-48
2023/06/14 10:39:55;;;;;;;5.03;4.53;;;33.40;22.80;;;;;;4973399;28;20525;-50
2023/06/14 10:42:22;;;;;;;4.80;4.40;;;33.30;23.20;;;;;;4972379;28;20651;-47
2023/06/14 10:44:53;;;;;;;4.67;4.27;;;33.50;23.90;;;;;;4972059;28;20530;-50
2023/06/14 10:47:35;;;;;;;5.23;4.50;;;33.60;23.90;;;;;;4972998;28;20469;-48
2023/06/14 10:50:08;;;;;;;7.20;4.33;;;33.80;23.80;;;;;;4973548;28;20651;-48
2023/06/14 10:52:40;;;;;;;6.20;4.10;;;33.90;23.60;;;;;;4972141;28;20454;-48
2023/06/14 10:55:18;;;;;;;8.40;4.60;;;34.00;22.70;;;;;;4970118;28;20478;-47
2023/06/14 10:57:49;;;;;;;5.00;4.60;;;33.80;22.60;;;;;;4971985;28;20486;-47
2023/06/14 11:00:20;;;;;;;5.60;4.47;;;33.70;23.00;;;;;;4986287;28;20465;-49
2023/06/14 11:03:16;;;;;;;5.50;4.00;;;33.50;22.50;;;;;;4973427;28;20925;-48
2023/06/14 11:05:52;;;;;;;4.80;4.37;;;33.40;23.50;;;;;;4972357;28;20490;-47
2023/06/14 11:08:45;;;;;;;5.43;4.40;;;33.40;22.60;;;;;;4973050;28;20439;-48
2023/06/14 11:11:12;;;;;;;4.73;4.33;;;33.50;23.00;;;;;;4970945;28;20779;-47
2023/06/14 11:13:41;;;;;;;4.67;4.03;;;33.50;22.50;;;;;;4968651;28;20509;-49
2023/06/14 11:16:11;;;;;;;4.90;4.50;;;33.70;22.60;;;;;;4973194;28;20854;-47
2023/06/14 11:18:37;;;;;;;5.23;4.00;;;33.80;22.50;;;;;;4973077;28;20526;-49
2023/06/14 11:21:03;;;;;;;7.93;4.93;;;33.90;23.40;;;;;;4972073;28;20450;-48
2023/06/14 11:23:29;;;;;;;12.40;5.00;;;33.90;23.40;;;;;;4973215;28;20223;-49
2023/06/14 11:25:54;;;;;;;17.10;4.77;;;34.00;23.30;;;;;;4971858;28;20227;-49
2023/06/14 11:28:21;;;;;;;5.70;5.20;;;34.20;24.00;;;;;;4973979;28;20898;-48
2023/06/14 11:30:47;;;;;;;4.93;4.50;;;34.50;23.10;;;;;;4972207;28;20199;-53
2023/06/14 11:33:18;;;;;;;5.40;4.50;;;34.50;21.70;;;;;;4971517;28;20442;-48
2023/06/14 11:35:45;;;;;;;6.33;4.10;;;34.60;21.90;;;;;;4971804;28;20513;-49
2023/06/14 11:38:11;;;;;;;4.67;4.00;;;34.60;21.60;;;;;;4973633;28;20446;-52
2023/06/14 11:40:38;;;;;;;4.90;4.20;;;34.60;21.70;;;;;;4971369;28;20968;-48
2023/06/14 11:43:04;;;;;;;8.60;4.50;;;34.50;20.70;;;;;;4972275;28;20199;-52
2023/06/14 11:45:30;;;;;;;5.07;4.50;;;34.30;21.70;;;;;;4971483;28;20593;-47
2023/06/14 11:47:57;;;;;;;4.80;4.50;;;34.50;21.90;;;;;;4969322;28;20447;-46
2023/06/14 11:50:23;;;;;;;5.73;4.30;;;34.60;21.70;;;;;;4972848;28;21240;-47
2023/06/14 11:52:55;;;;;;;5.13;4.63;;;34.80;21.50;;;;;;4969996;28;20443;-46
2023/06/14 11:55:21;;;;;;;5.10;4.70;;;34.90;21.10;;;;;;4973198;28;20214;-50
2023/06/14 11:57:47;;;;;;;4.80;4.40;;;35.10;20.70;;;;;;4970225;28;20442;-49
2023/06/14 12:00:15;;;;;;;4.83;4.13;;;35.40;20.80;;;;;;4969316;28;21037;-48
2023/06/14 12:02:41;;;;;;;5.13;4.20;;;35.50;20.70;;;;;;4969994;28;20203;-48
2023/06/14 12:05:09;;;;;;;13.93;5.70;;;35.60;21.60;;;;;;4966141;28;20491;-51
2023/06/14 12:07:37;;;;;;;4.73;4.43;;;35.60;22.20;;;;;;4967725;28;20450;-62
2023/06/14 12:10:06;;;;;;;5.13;4.60;;;35.60;21.40;;;;;;4963999;28;20459;-53
2023/06/14 12:12:38;;;;;;;4.43;4.03;;;35.70;21.20;;;;;;4966719;28;20485;-48
2023/06/14 12:15:06;;;;;;;5.13;4.83;;;35.60;21.50;;;;;;4963557;28;20482;-52
2023/06/14 12:17:35;;;;;;;6.50;4.77;;;35.70;21.00;;;;;;4972138;28;20449;-53
2023/06/14 12:20:13;;;;;;;4.70;4.30;;;35.70;20.50;;;;;;4971961;28;20803;-47
2023/06/14 12:22:51;;;;;;;5.20;4.70;;;35.80;20.60;;;;;;4972777;28;20926;-48
2023/06/14 12:25:26;;;;;;;5.30;4.40;;;35.70;21.20;;;;;;4973377;28;20524;-47
2023/06/14 12:27:53;;;;;;;4.77;3.70;;;35.60;21.20;;;;;;4974387;28;20481;-47
2023/06/14 12:30:19;;;;;;;4.70;4.30;;;35.40;20.90;;;;;;4977275;28;20469;-47
2023/06/14 12:32:45;;;;;;;4.60;4.30;;;35.40;21.70;;;;;;4974858;28;20545;-47
2023/06/14 12:35:11;;;;;;;5.30;4.80;;;35.40;21.40;;;;;;4973503;28;20203;-51
2023/06/14 12:37:36;;;;;;;9.27;4.43;;;35.40;22.10;;;;;;4973637;28;20214;-47
2023/06/14 12:40:06;;;;;;;4.63;4.03;;;35.40;21.90;;;;;;4974016;28;20345;-49
2023/06/14 12:42:33;;;;;;;4.80;4.40;;;35.40;22.20;;;;;;4976399;28;20722;-48
2023/06/14 12:44:59;;;;;;;4.47;4.07;;;35.30;22.10;;;;;;4974337;28;20508;-47
2023/06/14 12:47:25;;;;;;;4.90;4.50;;;35.20;22.50;;;;;;4970790;28;20446;-49